createdAt,value
2023-04-06T00:07:33.493Z,65.22
2023-04-06T00:17:33.758Z,65.95
2023-04-06T00:27:33.923Z,65.84
2023-04-06T00:37:34.132Z,64.46
2023-04-06T00:47:34.361Z,60.60
2023-04-06T00:57:34.588Z,62.01
2023-04-06T01:07:34.785Z,66.63
2023-04-06T01:17:35.009Z,65.84
2023-04-06T01:27:35.193Z,62.66
2023-04-06T01:37:35.411Z,61.04
2023-04-06T01:47:35.653Z,60.39
2023-04-06T01:57:35.904Z,62.01
2023-04-06T02:07:36.116Z,62.43
2023-04-06T02:17:36.330Z,62.11
2023-04-06T02:27:36.524Z,63.05
2023-04-06T02:37:36.697Z,63.91
2023-04-06T02:47:36.933Z,62.84
2023-04-06T02:57:37.250Z,62.01
2023-04-06T03:07:37.280Z,62.32
2023-04-06T03:17:37.503Z,64.04
2023-04-06T03:27:37.709Z,64.80
2023-04-06T03:37:37.898Z,64.28
2023-04-06T03:47:38.112Z,65.01
2023-04-06T03:57:38.306Z,65.64
2023-04-06T04:07:38.512Z,65.77
2023-04-06T04:17:38.741Z,65.88
2023-04-06T04:27:38.934Z,63.42
2023-04-06T04:37:39.133Z,63.63
2023-04-06T04:47:39.401Z,65.14
2023-04-06T04:57:39.647Z,65.01
2023-04-06T05:07:39.864Z,63.84
2023-04-06T05:17:40.119Z,64.80
2023-04-06T05:27:40.282Z,63.53
2023-04-06T05:37:40.486Z,63.53
2023-04-06T05:47:40.697Z,63.53
2023-04-06T05:57:40.868Z,62.55
2023-04-06T06:07:41.071Z,62.19
2023-04-06T06:17:41.299Z,60.26
2023-04-06T06:27:41.592Z,58.98
2023-04-06T06:37:41.752Z,58.13
2023-04-06T06:47:42.005Z,56.31
2023-04-06T06:57:42.149Z,54.94
2023-04-06T07:07:42.406Z,54.99
2023-04-06T07:17:42.662Z,53.80
2023-04-06T07:27:42.842Z,54.06
2023-04-06T07:37:43.033Z,51.79
2023-04-06T07:47:43.311Z,51.95
2023-04-06T07:57:43.515Z,50.76
2023-04-06T08:07:43.750Z,49.58
2023-04-06T08:17:43.963Z,48.30
2023-04-06T08:27:44.153Z,45.91
2023-04-06T08:37:44.382Z,44.31
2023-04-06T08:47:44.587Z,44.37
2023-04-06T08:57:44.768Z,41.86
2023-04-06T09:07:44.970Z,41.87
2023-04-06T09:17:45.211Z,43.02
2023-04-06T09:27:45.563Z,41.52
2023-04-06T09:37:45.676Z,44.49
2023-04-06T09:47:45.771Z,42.65
2023-04-06T09:57:45.959Z,39.51
2023-04-06T10:07:58.930Z,42.69
2023-04-06T10:17:47.427Z,37.95
2023-04-06T10:27:46.772Z,37.75
2023-04-06T10:37:46.781Z,39.69
2023-04-06T10:47:47.006Z,37.42
2023-04-06T10:57:47.202Z,34.39
2023-04-06T11:07:47.403Z,35.19
2023-04-06T11:17:47.654Z,35.16
2023-04-06T11:27:47.862Z,35.97
2023-04-06T11:37:48.079Z,37.05
2023-04-06T11:47:48.294Z,31.35
2023-04-06T11:57:48.485Z,36.72
2023-04-06T12:07:48.684Z,37.13
2023-04-06T12:17:48.956Z,35.70
2023-04-06T12:27:49.120Z,35.01
2023-04-06T12:37:49.363Z,35.26
2023-04-06T12:47:49.624Z,34.77
2023-04-06T12:57:49.662Z,36.79
2023-04-06T13:07:49.879Z,35.99
2023-04-06T13:17:50.126Z,32.52
2023-04-06T13:27:50.354Z,30.90
2023-04-06T13:37:50.453Z,32.84
2023-04-06T13:47:50.752Z,36.05
2023-04-06T13:57:51.001Z,35.65
2023-04-06T14:07:51.020Z,31.18
2023-04-06T14:17:51.345Z,29.86
2023-04-06T14:27:51.328Z,35.95
2023-04-06T14:37:51.558Z,34.57
2023-04-06T14:47:51.813Z,32.08
2023-04-06T14:57:51.997Z,33.53
2023-04-06T15:07:52.234Z,34.45
2023-04-06T15:17:52.514Z,35.70
2023-04-06T15:27:52.584Z,31.85
2023-04-06T15:37:52.883Z,35.41
2023-04-06T15:47:52.985Z,33.92
2023-04-06T15:57:52.976Z,37.57
2023-04-06T16:07:53.214Z,38.56
2023-04-06T16:17:53.459Z,40.42
2023-04-06T16:27:53.652Z,37.71
2023-04-06T16:37:53.895Z,39.58
2023-04-06T16:47:54.152Z,42.76
2023-04-06T16:57:54.321Z,41.05
2023-04-06T17:07:54.548Z,41.27
2023-04-06T17:17:54.941Z,41.19
2023-04-06T17:27:54.992Z,40.51
2023-04-06T17:37:55.212Z,42.04
2023-04-06T17:47:55.450Z,40.73
2023-04-06T17:57:55.634Z,42.97
2023-04-06T18:07:55.893Z,42.59
2023-04-06T18:17:55.944Z,44.02
2023-04-06T18:27:56.138Z,45.17
2023-04-06T18:37:56.414Z,47.99
2023-04-06T18:47:56.464Z,49.42
2023-04-06T18:57:56.702Z,47.30
2023-04-06T19:07:56.928Z,49.69
2023-04-06T19:17:57.216Z,51.44
2023-04-06T19:27:57.411Z,47.97
2023-04-06T19:37:57.632Z,47.56
2023-04-06T19:47:57.911Z,48.28
2023-04-06T19:57:58.101Z,46.56
2023-04-06T20:07:58.316Z,48.10
2023-04-06T20:17:58.593Z,48.49
2023-04-06T20:27:58.752Z,47.28
2023-04-06T20:37:58.949Z,44.26
2023-04-06T20:47:59.220Z,47.96
2023-04-06T20:57:59.235Z,48.49
2023-04-06T21:07:59.465Z,44.10
2023-04-06T21:17:59.706Z,49.93
2023-04-06T21:27:59.889Z,46.03
2023-04-06T21:38:00.175Z,48.41
2023-04-06T21:48:00.413Z,50.38
2023-04-06T21:58:00.622Z,48.54
2023-04-06T22:08:00.819Z,50.36
2023-04-06T22:18:01.091Z,50.99
2023-04-06T22:28:01.287Z,50.99
2023-04-06T22:38:01.519Z,50.99
2023-04-06T22:48:01.762Z,47.41
2023-04-06T22:58:01.940Z,49.05
2023-04-06T23:08:02.145Z,51.35
2023-04-06T23:18:02.390Z,51.64
2023-04-06T23:28:02.585Z,50.30
2023-04-06T23:38:02.787Z,51.95
2023-04-06T23:48:03.029Z,52.87
2023-04-06T23:58:03.205Z,52.15
